Time;durP1;ratioP1;P1;durP2;ratioP2;P2;SDS_P1;SDS_P2;PMS_P1;PMS_P2;Temp;Humidity;BMP_temperature;BMP_pressure;BME280_temperature;BME280_humidity;BME280_pressure;Samples;Min_cycle;Max_cycle;Signal;HPM_P1;HPM_P2
2021/07/31 00:00:05;;;;;;;2.97;1.60;;;20.30;83.30;;;;;;5034631;28;20033;-71
2021/07/31 00:02:31;;;;;;;2.33;1.25;;;20.10;83.70;;;;;;5033926;28;20052;-71
2021/07/31 00:04:57;;;;;;;4.15;1.27;;;20.10;84.00;;;;;;5034033;28;20552;-72
2021/07/31 00:07:22;;;;;;;3.30;1.23;;;20.20;83.70;;;;;;5033010;28;20557;-73
2021/07/31 00:09:48;;;;;;;2.92;1.17;;;20.40;83.70;;;;;;5033933;28;20034;-71
2021/07/31 00:12:13;;;;;;;6.63;1.58;;;20.40;83.40;;;;;;5034045;28;20055;-72
2021/07/31 00:14:39;;;;;;;1.38;0.98;;;20.40;83.30;;;;;;5034490;28;20351;-71
2021/07/31 00:17:07;;;;;;;4.95;1.45;;;20.30;83.10;;;;;;5032927;28;20026;-71
2021/07/31 00:19:33;;;;;;;1.75;1.08;;;20.30;82.70;;;;;;5033977;28;20029;-72
2021/07/31 00:21:59;;;;;;;3.70;1.33;;;20.30;82.60;;;;;;5033666;28;20590;-72
2021/07/31 00:24:24;;;;;;;5.22;1.20;;;20.30;82.50;;;;;;5032741;28;20112;-72
2021/07/31 00:26:50;;;;;;;4.13;1.50;;;20.30;82.20;;;;;;5034028;28;20113;-72
2021/07/31 00:29:15;;;;;;;3.28;1.10;;;20.30;82.30;;;;;;5033722;28;20240;-72
2021/07/31 00:31:41;;;;;;;1.67;1.00;;;20.30;82.00;;;;;;5033742;28;20112;-71
2021/07/31 00:34:06;;;;;;;6.72;1.10;;;20.30;82.00;;;;;;5033643;28;20116;-71
2021/07/31 00:36:32;;;;;;;3.47;1.63;;;20.30;81.70;;;;;;5033594;28;20025;-71
2021/07/31 00:38:58;;;;;;;1.77;0.90;;;20.20;81.50;;;;;;5033226;28;20029;-72
2021/07/31 00:41:23;;;;;;;3.90;1.08;;;20.10;82.10;;;;;;5033745;28;20034;-70
2021/07/31 00:43:49;;;;;;;2.22;1.17;;;20.10;82.20;;;;;;5033357;28;20036;-72
2021/07/31 00:46:15;;;;;;;1.77;0.88;;;20.10;82.10;;;;;;5033517;28;20053;-70
2021/07/31 00:48:42;;;;;;;4.10;1.27;;;20.10;82.00;;;;;;5033196;28;20044;-72
2021/07/31 00:51:08;;;;;;;2.53;1.10;;;20.00;82.00;;;;;;5033175;28;20026;-72
2021/07/31 00:53:33;;;;;;;5.60;1.25;;;20.00;82.50;;;;;;5033742;28;20028;-72
2021/07/31 00:55:59;;;;;;;4.50;2.03;;;20.00;82.70;;;;;;5033504;28;20038;-72
2021/07/31 00:58:26;;;;;;;3.22;0.93;;;20.00;83.20;;;;;;5033178;28;20029;-72
2021/07/31 01:00:52;;;;;;;5.23;1.73;;;20.00;83.50;;;;;;5032940;28;20037;-72
2021/07/31 01:03:18;;;;;;;4.38;1.33;;;20.00;83.40;;;;;;5032928;28;20371;-71
2021/07/31 01:05:44;;;;;;;3.80;1.60;;;20.00;83.30;;;;;;5032559;28;20026;-72
2021/07/31 01:08:10;;;;;;;5.60;1.65;;;19.90;83.80;;;;;;5032903;28;20052;-72
2021/07/31 01:10:36;;;;;;;4.63;1.83;;;20.00;83.80;;;;;;5033115;28;20680;-72
2021/07/31 01:13:03;;;;;;;5.88;1.90;;;19.90;84.10;;;;;;5031914;28;20029;-72
2021/07/31 01:15:29;;;;;;;7.03;1.55;;;19.90;84.30;;;;;;5032672;28;20487;-72
2021/07/31 01:17:54;;;;;;;9.02;1.90;;;19.90;84.60;;;;;;5033250;28;20033;-72
2021/07/31 01:20:20;;;;;;;4.90;1.48;;;19.90;84.50;;;;;;5032879;28;20049;-72
2021/07/31 01:22:46;;;;;;;4.78;1.67;;;19.80;84.70;;;;;;5032651;28;20511;-73
2021/07/31 01:25:12;;;;;;;6.25;1.30;;;19.80;84.80;;;;;;5032753;28;20124;-70
2021/07/31 01:27:39;;;;;;;2.03;1.30;;;19.80;84.70;;;;;;5032632;28;20095;-71
2021/07/31 01:30:06;;;;;;;3.38;1.20;;;19.80;84.80;;;;;;5031771;28;20017;-72
2021/07/31 01:32:31;;;;;;;3.40;1.20;;;19.70;84.60;;;;;;5032600;28;20348;-72
2021/07/31 01:34:57;;;;;;;2.30;1.30;;;19.70;84.50;;;;;;5033551;28;20083;-72
2021/07/31 01:37:23;;;;;;;7.78;1.80;;;19.60;84.30;;;;;;5052308;28;20029;-72
2021/07/31 01:39:49;;;;;;;6.05;1.67;;;19.60;84.40;;;;;;5051152;28;20451;-72
2021/07/31 01:42:16;;;;;;;8.25;1.67;;;19.50;84.20;;;;;;5052189;28;20348;-72
2021/07/31 01:44:41;;;;;;;4.70;1.50;;;19.50;84.10;;;;;;5051488;28;20183;-73
2021/07/31 01:47:07;;;;;;;2.90;1.33;;;19.50;84.00;;;;;;5052184;28;20068;-72
2021/07/31 01:49:33;;;;;;;8.80;2.10;;;19.50;84.20;;;;;;5051122;28;20037;-71
2021/07/31 01:52:01;;;;;;;7.68;1.98;;;19.50;84.00;;;;;;5052073;28;20476;-72
2021/07/31 01:54:27;;;;;;;8.52;1.95;;;19.40;84.00;;;;;;5051978;28;20383;-70
2021/07/31 01:56:52;;;;;;;1.92;1.15;;;19.40;84.00;;;;;;5052407;28;20074;-71
2021/07/31 01:59:18;;;;;;;6.75;1.30;;;19.40;83.70;;;;;;5050856;28;20025;-72
2021/07/31 02:01:43;;;;;;;4.15;1.70;;;19.40;83.30;;;;;;5051792;28;20064;-72
2021/07/31 02:04:09;;;;;;;6.88;1.08;;;19.30;83.00;;;;;;5051608;28;20030;-73
2021/07/31 02:06:35;;;;;;;6.47;1.35;;;19.20;82.90;;;;;;5051635;28;20363;-71
2021/07/31 02:09:01;;;;;;;3.40;1.27;;;19.20;82.40;;;;;;5052228;28;20104;-71
2021/07/31 02:11:26;;;;;;;4.28;0.85;;;19.20;82.30;;;;;;5051626;28;20044;-72
2021/07/31 02:13:52;;;;;;;7.47;1.45;;;19.20;82.10;;;;;;5051826;28;20029;-73
2021/07/31 02:16:22;;;;;;;4.70;1.55;;;19.20;82.00;;;;;;5051742;28;20029;-72
2021/07/31 02:18:48;;;;;;;4.38;1.00;;;19.10;81.90;;;;;;5051487;28;20037;-73
2021/07/31 02:21:13;;;;;;;5.32;1.30;;;19.10;82.00;;;;;;5051265;28;20025;-72
2021/07/31 02:23:39;;;;;;;2.78;1.27;;;19.10;82.10;;;;;;5051144;28;20056;-73
2021/07/31 02:26:05;;;;;;;6.82;1.00;;;19.10;82.00;;;;;;5051261;28;20075;-73
2021/07/31 02:28:30;;;;;;;3.80;1.05;;;19.00;82.00;;;;;;5051370;28;20100;-71
2021/07/31 02:30:55;;;;;;;2.58;0.80;;;19.00;82.00;;;;;;5051367;28;20044;-73
2021/07/31 02:33:21;;;;;;;9.20;1.25;;;19.00;82.00;;;;;;5051594;28;20454;-72
2021/07/31 02:35:48;;;;;;;7.13;1.88;;;19.00;82.00;;;;;;5051978;28;20057;-72
2021/07/31 02:38:14;;;;;;;8.13;1.23;;;19.00;81.70;;;;;;5051414;28;20086;-73
2021/07/31 02:40:39;;;;;;;3.90;1.33;;;19.00;81.80;;;;;;5050165;28;20033;-72
2021/07/31 02:43:05;;;;;;;4.15;1.13;;;19.00;81.70;;;;;;5050132;28;20115;-71
2021/07/31 02:45:30;;;;;;;5.32;1.75;;;18.90;81.50;;;;;;5051252;28;20040;-72
2021/07/31 02:47:56;;;;;;;4.50;1.65;;;19.00;81.80;;;;;;5051605;28;20068;-72
2021/07/31 02:50:21;;;;;;;4.35;1.52;;;18.90;81.60;;;;;;5051318;28;20467;-73
2021/07/31 02:52:47;;;;;;;5.90;1.40;;;18.90;81.70;;;;;;5051295;28;20362;-72
2021/07/31 02:55:13;;;;;;;3.05;1.52;;;18.90;81.60;;;;;;5050947;28;20044;-72
2021/07/31 02:57:38;;;;;;;2.53;1.27;;;18.90;81.50;;;;;;5050043;28;20052;-73
2021/07/31 03:00:06;;;;;;;3.70;1.10;;;18.90;81.50;;;;;;5050706;28;20689;-73
2021/07/31 03:02:31;;;;;;;7.88;1.30;;;18.80;81.40;;;;;;5050935;28;20033;-73
2021/07/31 03:04:57;;;;;;;3.47;1.23;;;18.80;81.50;;;;;;5050076;28;20366;-72
2021/07/31 03:07:22;;;;;;;6.80;1.05;;;18.80;81.40;;;;;;5050898;28;20090;-71
2021/07/31 03:09:48;;;;;;;7.50;1.00;;;18.80;81.30;;;;;;5050878;28;20458;-71
2021/07/31 03:12:14;;;;;;;6.18;1.17;;;18.80;81.10;;;;;;5050914;28;20082;-72
2021/07/31 03:14:41;;;;;;;3.33;1.10;;;18.80;81.20;;;;;;5050423;28;20037;-71
2021/07/31 03:17:06;;;;;;;3.45;1.00;;;18.70;81.00;;;;;;5052429;28;20665;-72
2021/07/31 03:19:32;;;;;;;4.85;1.17;;;18.70;81.10;;;;;;5054911;28;20041;-72
2021/07/31 03:21:57;;;;;;;7.03;1.10;;;18.70;81.10;;;;;;5054631;28;20045;-73
2021/07/31 03:24:23;;;;;;;2.25;1.17;;;18.70;81.10;;;;;;5054964;28;20029;-72
2021/07/31 03:26:48;;;;;;;2.75;0.98;;;18.60;81.00;;;;;;5055344;28;20029;-74
2021/07/31 03:29:14;;;;;;;3.40;1.17;;;18.60;81.10;;;;;;5055076;28;20336;-73
2021/07/31 03:31:40;;;;;;;7.40;1.30;;;18.60;81.20;;;;;;5054862;28;20025;-72
2021/07/31 03:34:05;;;;;;;5.35;1.08;;;18.60;81.20;;;;;;5053820;28;20498;-72
2021/07/31 03:36:30;;;;;;;8.77;1.42;;;18.60;81.30;;;;;;5053669;28;20029;-72
2021/07/31 03:38:56;;;;;;;3.88;1.27;;;18.60;81.20;;;;;;5055139;28;20033;-72
2021/07/31 03:41:22;;;;;;;9.73;1.27;;;18.50;81.50;;;;;;5054517;28;20037;-72
2021/07/31 03:43:47;;;;;;;5.57;1.25;;;18.50;81.40;;;;;;5054417;28;20114;-73
2021/07/31 03:46:13;;;;;;;8.40;1.10;;;18.60;81.40;;;;;;5054176;28;20040;-73
2021/07/31 03:48:38;;;;;;;2.58;0.95;;;18.50;81.60;;;;;;5054233;28;20106;-72
2021/07/31 03:51:04;;;;;;;4.93;1.05;;;18.50;81.40;;;;;;5053608;28;20067;-73
2021/07/31 03:53:30;;;;;;;4.65;1.02;;;18.50;81.30;;;;;;5054337;28;20033;-72
2021/07/31 03:55:55;;;;;;;3.63;1.23;;;18.50;81.20;;;;;;5054192;28;20029;-73
2021/07/31 03:58:21;;;;;;;6.45;1.00;;;18.50;81.10;;;;;;5054206;28;20533;-71
2021/07/31 04:00:46;;;;;;;5.55;1.25;;;18.60;81.10;;;;;;5054327;28;20124;-72
2021/07/31 04:03:12;;;;;;;1.25;0.77;;;18.50;80.70;;;;;;5054465;28;20443;-72
2021/07/31 04:05:39;;;;;;;1.77;0.70;;;18.50;80.90;;;;;;5054501;28;20520;-73
2021/07/31 04:08:05;;;;;;;7.78;1.58;;;18.60;80.80;;;;;;5054207;28;20394;-71
2021/07/31 04:10:30;;;;;;;3.80;1.02;;;18.50;80.60;;;;;;5054007;28;20508;-73
2021/07/31 04:12:57;;;;;;;6.90;1.33;;;18.60;80.70;;;;;;5053906;28;20052;-71
2021/07/31 04:15:22;;;;;;;2.42;1.13;;;18.50;80.40;;;;;;5053741;28;20048;-74
2021/07/31 04:17:48;;;;;;;4.47;1.15;;;18.60;80.40;;;;;;5054579;28;20454;-71
2021/07/31 04:20:13;;;;;;;5.72;1.02;;;18.60;80.30;;;;;;5053800;28;20025;-73
2021/07/31 04:22:39;;;;;;;3.53;1.17;;;18.70;80.40;;;;;;5053240;28;20045;-73
2021/07/31 04:25:05;;;;;;;4.47;1.20;;;18.60;80.30;;;;;;5053887;28;20108;-73
2021/07/31 04:27:32;;;;;;;3.53;0.85;;;18.70;80.40;;;;;;5053142;28;20037;-73
2021/07/31 04:29:58;;;;;;;1.52;0.90;;;18.70;80.20;;;;;;5053935;28;20025;-72
2021/07/31 04:32:23;;;;;;;4.25;1.13;;;18.70;80.30;;;;;;5053719;28;20659;-72
2021/07/31 04:34:49;;;;;;;10.52;1.35;;;18.70;80.30;;;;;;5053711;28;20506;-71
2021/07/31 04:37:14;;;;;;;6.35;1.00;;;18.70;80.20;;;;;;5053791;28;20462;-72
2021/07/31 04:39:40;;;;;;;2.22;1.10;;;18.70;80.30;;;;;;5053661;28;20097;-70
2021/07/31 04:42:05;;;;;;;3.75;1.10;;;18.70;80.40;;;;;;5052794;28;20021;-73
2021/07/31 04:44:31;;;;;;;7.55;0.95;;;18.70;80.40;;;;;;5052687;28;20025;-72
2021/07/31 04:46:57;;;;;;;3.08;1.00;;;18.70;80.40;;;;;;5053469;28;20036;-72
2021/07/31 04:49:22;;;;;;;2.55;1.02;;;18.70;80.40;;;;;;5053342;28;20044;-72
2021/07/31 04:51:48;;;;;;;5.32;1.00;;;18.70;80.50;;;;;;5053250;28;20068;-72
2021/07/31 04:54:15;;;;;;;5.57;1.48;;;18.60;80.50;;;;;;5053278;28;20344;-72
2021/07/31 04:56:41;;;;;;;2.92;0.98;;;18.60;80.60;;;;;;5052493;28;20025;-73
2021/07/31 04:59:06;;;;;;;4.63;0.85;;;18.60;80.70;;;;;;5053108;28;20036;-73
2021/07/31 05:01:32;;;;;;;4.95;1.10;;;18.60;80.80;;;;;;5052198;28;20025;-72
2021/07/31 05:03:58;;;;;;;3.17;0.98;;;18.70;80.80;;;;;;5053072;28;20033;-73
2021/07/31 05:06:23;;;;;;;6.28;1.20;;;18.70;80.80;;;;;;5052853;28;20087;-72
2021/07/31 05:08:50;;;;;;;1.77;0.82;;;18.70;80.80;;;;;;5052425;28;20056;-73
2021/07/31 05:11:18;;;;;;;10.05;1.35;;;18.70;80.70;;;;;;5052127;28;20025;-72
2021/07/31 05:13:44;;;;;;;;;;;18.60;80.70;;;;;;5053517;28;20055;-72
2021/07/31 05:16:14;;;;;;;6.93;1.27;;;18.70;81.00;;;;;;5052910;28;20338;-73
2021/07/31 05:18:40;;;;;;;4.80;0.93;;;18.60;81.00;;;;;;5052851;28;20044;-72
2021/07/31 05:21:07;;;;;;;3.47;0.90;;;18.70;81.20;;;;;;5052779;28;20024;-73
2021/07/31 05:23:33;;;;;;;5.18;1.38;;;18.70;81.00;;;;;;5052802;28;20045;-71
2021/07/31 05:25:58;;;;;;;3.75;1.20;;;18.60;81.10;;;;;;5052480;28;20025;-73
2021/07/31 05:28:24;;;;;;;3.58;0.98;;;18.60;81.20;;;;;;5052556;28;20359;-72
2021/07/31 05:30:50;;;;;;;3.63;1.48;;;18.60;81.20;;;;;;5052454;28;20029;-72
2021/07/31 05:33:15;;;;;;;4.07;1.00;;;18.60;81.20;;;;;;5052384;28;20029;-71
2021/07/31 05:35:41;;;;;;;6.28;1.20;;;18.60;81.40;;;;;;5051850;28;20029;-71
2021/07/31 05:38:06;;;;;;;5.65;1.52;;;18.70;81.40;;;;;;5051352;28;20037;-72
2021/07/31 05:40:32;;;;;;;3.28;1.13;;;18.70;81.40;;;;;;5051557;28;20033;-73
2021/07/31 05:42:58;;;;;;;3.10;1.10;;;18.60;81.40;;;;;;5052232;28;20028;-72
2021/07/31 05:45:25;;;;;;;5.35;1.42;;;18.70;81.50;;;;;;5052027;28;20336;-71
2021/07/31 05:47:51;;;;;;;6.35;1.20;;;18.70;81.50;;;;;;5052524;28;20025;-73
2021/07/31 05:50:16;;;;;;;7.85;2.42;;;18.70;81.20;;;;;;5051129;28;20048;-72
2021/07/31 05:52:42;;;;;;;7.93;1.30;;;18.70;81.30;;;;;;5052130;28;20044;-73
2021/07/31 05:55:08;;;;;;;2.65;1.13;;;18.70;81.30;;;;;;5052274;28;20029;-72
2021/07/31 05:57:34;;;;;;;4.35;1.10;;;18.80;81.10;;;;;;5052036;28;20025;-73
2021/07/31 05:59:59;;;;;;;6.10;1.13;;;18.80;80.80;;;;;;5052468;28;20153;-72
2021/07/31 06:02:26;;;;;;;4.40;1.00;;;18.90;80.60;;;;;;5052053;28;20025;-71
2021/07/31 06:04:52;;;;;;;6.78;1.27;;;18.90;80.30;;;;;;5051850;28;20029;-72
2021/07/31 06:07:18;;;;;;;6.03;1.35;;;19.00;80.40;;;;;;5051738;28;20148;-73
2021/07/31 06:09:50;;;;;;;3.22;1.15;;;19.10;80.10;;;;;;5052210;28;20056;-73
2021/07/31 06:12:16;;;;;;;2.67;1.00;;;19.20;79.80;;;;;;5051678;28;20025;-72
2021/07/31 06:14:42;;;;;;;5.22;1.10;;;19.30;79.70;;;;;;5051138;28;20025;-73
2021/07/31 06:17:07;;;;;;;5.43;1.10;;;19.50;79.50;;;;;;5051648;28;20477;-72
2021/07/31 06:19:34;;;;;;;4.28;1.17;;;19.50;79.40;;;;;;5051797;28;20499;-72
2021/07/31 06:22:01;;;;;;;4.72;1.30;;;19.60;79.20;;;;;;5051520;28;20055;-72
2021/07/31 06:24:27;;;;;;;3.42;1.35;;;19.70;78.90;;;;;;5050607;28;20025;-71
2021/07/31 06:26:53;;;;;;;7.50;1.33;;;19.70;78.80;;;;;;5051584;28;20091;-72
2021/07/31 06:29:19;;;;;;;6.07;1.10;;;19.70;78.70;;;;;;5051220;28;20065;-71
2021/07/31 06:31:46;;;;;;;8.65;1.40;;;19.80;78.80;;;;;;5051596;28;20047;-72
2021/07/31 06:34:12;;;;;;;6.00;1.15;;;19.70;78.60;;;;;;5050128;28;20024;-71
2021/07/31 06:36:37;;;;;;;6.80;1.33;;;19.60;78.70;;;;;;5051175;28;20079;-73
2021/07/31 06:39:04;;;;;;;5.78;1.17;;;19.60;79.00;;;;;;5051678;28;20415;-72
2021/07/31 06:41:30;;;;;;;4.75;0.90;;;19.50;79.00;;;;;;5051174;28;20023;-71
2021/07/31 06:43:57;;;;;;;4.88;1.20;;;19.60;79.20;;;;;;5051183;28;20037;-72
2021/07/31 06:46:24;;;;;;;3.13;1.25;;;19.60;79.00;;;;;;5050963;28;20025;-72
2021/07/31 06:48:50;;;;;;;4.05;1.20;;;19.50;78.90;;;;;;5050967;28;20454;-72
2021/07/31 06:51:17;;;;;;;5.03;2.10;;;19.50;79.00;;;;;;5050887;28;20112;-71
2021/07/31 06:53:43;;;;;;;3.25;1.20;;;19.50;79.10;;;;;;5051887;28;20469;-71
2021/07/31 06:56:09;;;;;;;2.85;0.93;;;19.50;79.00;;;;;;5049740;28;20048;-71
2021/07/31 06:58:34;;;;;;;5.03;0.85;;;19.50;79.00;;;;;;5050780;28;20029;-71
2021/07/31 07:01:00;;;;;;;3.33;1.00;;;19.40;78.80;;;;;;5050671;28;20043;-72
2021/07/31 07:03:26;;;;;;;5.78;1.23;;;19.50;79.10;;;;;;5050810;28;20414;-72
2021/07/31 07:05:51;;;;;;;6.05;1.50;;;19.50;79.20;;;;;;5051269;28;20465;-73
2021/07/31 07:08:17;;;;;;;4.65;1.20;;;19.60;79.00;;;;;;5050924;28;20371;-71
2021/07/31 07:10:43;;;;;;;0.93;0.70;;;19.60;78.80;;;;;;5050872;28;20024;-72
2021/07/31 07:13:08;;;;;;;4.38;1.50;;;19.70;78.80;;;;;;5050909;28;20102;-72
2021/07/31 07:15:35;;;;;;;4.35;0.88;;;19.70;78.40;;;;;;5050784;28;20471;-72
2021/07/31 07:18:01;;;;;;;3.03;1.17;;;19.60;78.40;;;;;;5051489;28;20036;-71
2021/07/31 07:20:27;;;;;;;4.00;1.23;;;19.50;78.30;;;;;;5050701;28;20274;-71
2021/07/31 07:22:53;;;;;;;3.60;1.20;;;19.50;78.30;;;;;;5050631;28;20387;-71
2021/07/31 07:25:19;;;;;;;5.00;1.02;;;19.50;78.30;;;;;;5050688;28;20433;-72
2021/07/31 07:27:45;;;;;;;2.88;1.30;;;19.50;78.80;;;;;;5051123;28;20052;-72
2021/07/31 07:30:11;;;;;;;3.28;0.85;;;19.50;78.30;;;;;;5050696;28;20021;-72
2021/07/31 07:32:38;;;;;;;2.22;0.80;;;19.50;78.20;;;;;;5051354;28;20032;-71
2021/07/31 07:35:05;;;;;;;4.63;1.30;;;19.60;78.30;;;;;;5050642;28;20029;-73
2021/07/31 07:37:31;;;;;;;5.57;1.40;;;19.40;78.30;;;;;;5050786;28;20040;-73
2021/07/31 07:39:58;;;;;;;4.30;1.70;;;19.50;78.40;;;;;;5050700;28;20401;-72
2021/07/31 07:42:24;;;;;;;6.07;1.33;;;19.40;78.30;;;;;;5050733;28;20025;-72
2021/07/31 07:44:50;;;;;;;9.85;1.75;;;19.30;78.20;;;;;;5049813;28;20025;-73
2021/07/31 07:47:15;;;;;;;4.03;1.00;;;19.40;78.60;;;;;;5050320;28;20056;-73
2021/07/31 07:49:41;;;;;;;3.78;1.40;;;19.30;78.50;;;;;;5050380;28;20033;-72
2021/07/31 07:52:06;;;;;;;9.15;1.77;;;19.40;78.50;;;;;;5050550;28;20029;-73
2021/07/31 07:54:32;;;;;;;4.75;1.02;;;19.30;78.60;;;;;;5050543;28;20170;-72
2021/07/31 07:56:58;;;;;;;5.45;1.27;;;19.30;78.60;;;;;;5049912;28;20439;-73
2021/07/31 07:59:24;;;;;;;2.92;1.30;;;19.40;78.70;;;;;;5050479;28;20035;-72
2021/07/31 08:01:49;;;;;;;2.45;1.05;;;19.40;78.60;;;;;;5050414;28;20048;-72
2021/07/31 08:04:15;;;;;;;8.15;1.60;;;19.40;78.70;;;;;;5053425;28;20033;-72
2021/07/31 08:06:41;;;;;;;1.48;1.08;;;19.40;78.80;;;;;;5053018;28;20484;-71
2021/07/31 08:09:07;;;;;;;3.35;1.20;;;19.40;78.70;;;;;;5054287;28;20064;-73
2021/07/31 08:11:33;;;;;;;2.80;0.90;;;19.50;78.70;;;;;;5054378;28;20033;-72
2021/07/31 08:13:59;;;;;;;7.60;1.50;;;19.40;79.30;;;;;;5054140;28;20029;-72
2021/07/31 08:16:25;;;;;;;5.03;1.55;;;19.40;78.80;;;;;;5054027;28;20108;-73
2021/07/31 08:18:50;;;;;;;5.57;1.50;;;19.40;78.90;;;;;;5053792;28;20511;-71
2021/07/31 08:21:16;;;;;;;4.88;1.33;;;19.40;79.00;;;;;;5053503;28;20025;-72
2021/07/31 08:23:44;;;;;;;6.03;0.98;;;19.40;79.10;;;;;;5054403;28;20381;-73
2021/07/31 08:26:13;;;;;;;4.88;1.35;;;19.40;79.20;;;;;;5053390;28;20477;-72
2021/07/31 08:28:40;;;;;;;3.75;1.20;;;19.40;79.20;;;;;;5053799;28;20346;-73
2021/07/31 08:31:10;;;;;;;7.25;1.40;;;19.30;79.40;;;;;;5053564;28;20138;-74
2021/07/31 08:33:36;;;;;;;4.82;1.20;;;19.30;79.50;;;;;;5052438;28;20025;-72
2021/07/31 08:36:06;;;;;;;4.10;1.40;;;19.40;79.40;;;;;;5053861;28;20120;-73
2021/07/31 08:38:33;;;;;;;2.20;0.80;;;19.40;79.40;;;;;;5053416;28;20098;-72
2021/07/31 08:40:59;;;;;;;1.88;1.00;;;19.40;79.50;;;;;;5053259;28;20090;-72
2021/07/31 08:43:25;;;;;;;6.00;1.15;;;19.50;79.60;;;;;;5053474;28;20498;-72
2021/07/31 08:45:52;;;;;;;1.55;1.10;;;19.50;79.60;;;;;;5053363;28;20424;-72
2021/07/31 08:48:18;;;;;;;5.72;1.35;;;19.70;79.60;;;;;;5053107;28;20021;-72
2021/07/31 08:50:46;;;;;;;2.65;1.23;;;19.90;79.40;;;;;;5053906;28;20013;-73
2021/07/31 08:53:12;;;;;;;1.67;1.10;;;20.40;78.20;;;;;;5053013;28;20055;-72
2021/07/31 08:55:37;;;;;;;2.05;1.08;;;20.40;77.90;;;;;;5053271;28;20581;-72
2021/07/31 08:58:03;;;;;;;4.00;1.00;;;20.30;77.70;;;;;;5053073;28;20033;-71
2021/07/31 09:00:29;;;;;;;5.07;1.25;;;20.50;77.70;;;;;;5052048;28;20251;-72
2021/07/31 09:02:55;;;;;;;3.35;1.15;;;20.50;77.50;;;;;;5053304;28;20025;-72
2021/07/31 09:05:35;;;;;;;2.40;1.20;;;20.60;77.40;;;;;;5052893;28;20048;-71
2021/07/31 09:08:05;;;;;;;4.53;1.30;;;20.60;77.40;;;;;;5052674;28;20025;-72
2021/07/31 09:10:33;;;;;;;5.72;1.15;;;20.50;77.60;;;;;;5052659;28;20041;-71
2021/07/31 09:13:05;;;;;;;6.07;1.20;;;20.50;77.80;;;;;;5052871;28;20039;-72
2021/07/31 09:15:37;;;;;;;2.42;1.20;;;20.70;77.60;;;;;;5051308;28;20025;-72
2021/07/31 09:18:26;;;;;;;2.67;1.20;;;20.80;77.30;;;;;;5053146;28;20381;-73
2021/07/31 09:20:56;;;;;;;1.80;0.98;;;20.80;77.20;;;;;;5052812;28;20044;-72
2021/07/31 09:23:22;;;;;;;4.18;1.33;;;20.80;77.50;;;;;;5052412;28;20045;-72
2021/07/31 09:26:00;;;;;;;2.35;0.95;;;20.70;77.70;;;;;;5052381;28;20037;-71
2021/07/31 09:28:26;;;;;;;2.55;1.33;;;20.70;77.90;;;;;;5052407;28;20029;-72
2021/07/31 09:30:52;;;;;;;2.80;1.50;;;20.80;78.00;;;;;;5052629;28;20048;-71
2021/07/31 09:33:18;;;;;;;4.82;1.30;;;20.80;77.80;;;;;;5052433;28;20017;-72
2021/07/31 09:35:48;;;;;;;4.18;1.50;;;21.00;77.80;;;;;;5052877;28;20028;-72
2021/07/31 09:38:14;;;;;;;4.28;1.40;;;21.00;77.80;;;;;;5051216;28;20029;-71
2021/07/31 09:40:40;;;;;;;6.70;1.77;;;21.10;77.70;;;;;;5052106;28;20039;-71
2021/07/31 09:43:17;;;;;;;5.18;1.52;;;21.10;77.40;;;;;;5051779;28;20033;-72
2021/07/31 09:45:44;;;;;;;3.83;1.40;;;21.20;77.00;;;;;;5051889;28;20102;-71
2021/07/31 09:48:10;;;;;;;3.08;1.33;;;21.00;77.10;;;;;;5051972;28;20469;-71
2021/07/31 09:50:43;;;;;;;3.25;1.50;;;21.00;77.20;;;;;;5052337;28;20071;-70
2021/07/31 09:53:11;;;;;;;2.58;1.27;;;20.90;76.80;;;;;;5051838;28;20032;-72
2021/07/31 09:55:42;;;;;;;4.90;1.20;;;20.90;76.80;;;;;;5051740;28;20468;-72
2021/07/31 09:58:09;;;;;;;4.13;1.10;;;21.00;76.80;;;;;;5051997;28;20052;-73
2021/07/31 10:00:38;;;;;;;4.45;1.83;;;21.40;75.80;;;;;;5051764;28;20029;-72
2021/07/31 10:03:04;;;;;;;7.43;1.13;;;21.50;75.70;;;;;;5052070;28;20024;-72
2021/07/31 10:05:31;;;;;;;4.53;1.30;;;21.60;75.50;;;;;;5051418;28;20110;-71
2021/07/31 10:07:57;;;;;;;3.88;1.45;;;21.90;75.50;;;;;;5051599;28;20041;-72
2021/07/31 10:10:23;;;;;;;3.35;1.30;;;21.90;75.50;;;;;;5051507;28;20490;-71
2021/07/31 10:12:49;;;;;;;5.82;1.83;;;22.00;75.60;;;;;;5051434;28;20099;-72
2021/07/31 10:15:14;;;;;;;3.15;1.35;;;22.00;74.80;;;;;;5051527;28;20108;-72
2021/07/31 10:17:41;;;;;;;4.55;1.63;;;22.10;75.20;;;;;;5051764;28;20109;-71
2021/07/31 10:20:07;;;;;;;3.92;1.42;;;22.30;74.70;;;;;;5051368;28;20029;-73
2021/07/31 10:22:46;;;;;;;4.10;1.52;;;22.30;74.00;;;;;;5050980;28;20040;-73
2021/07/31 10:25:16;;;;;;;3.25;1.50;;;22.20;74.20;;;;;;5050821;28;20045;-72
2021/07/31 10:27:42;;;;;;;5.93;1.85;;;22.30;74.40;;;;;;5051193;28;20490;-71
2021/07/31 10:30:24;;;;;;;4.40;1.25;;;22.30;74.20;;;;;;5051745;28;20057;-72
2021/07/31 10:32:50;;;;;;;7.47;1.55;;;22.30;73.80;;;;;;5051128;28;20096;-72
2021/07/31 10:35:28;;;;;;;4.10;1.23;;;22.30;73.80;;;;;;5051441;28;20459;-72
2021/07/31 10:38:10;;;;;;;5.45;1.75;;;22.10;73.50;;;;;;5051204;28;20467;-72
2021/07/31 10:40:38;;;;;;;4.88;1.60;;;22.00;73.80;;;;;;5050995;28;20044;-72
2021/07/31 10:43:05;;;;;;;2.33;1.10;;;21.80;74.20;;;;;;5050875;28;20084;-72
2021/07/31 10:45:32;;;;;;;5.65;1.58;;;21.70;74.50;;;;;;5049951;28;20117;-71
2021/07/31 10:48:00;;;;;;;2.65;1.10;;;21.70;74.40;;;;;;5051211;28;20029;-72
2021/07/31 10:50:26;;;;;;;3.45;1.40;;;21.50;74.50;;;;;;5051097;28;20036;-72
2021/07/31 10:52:51;;;;;;;3.95;1.15;;;21.40;75.00;;;;;;5051138;28;20625;-73
2021/07/31 10:55:18;;;;;;;6.40;1.25;;;21.50;75.00;;;;;;5050206;28;20037;-72
2021/07/31 10:57:53;;;;;;;5.00;1.92;;;21.50;74.90;;;;;;5050732;28;20363;-72
2021/07/31 11:00:28;;;;;;;3.72;1.50;;;21.50;75.20;;;;;;5050883;28;20090;-72
2021/07/31 11:02:54;;;;;;;4.45;1.13;;;21.50;75.30;;;;;;5051043;28;20097;-72
2021/07/31 11:05:21;;;;;;;5.30;1.45;;;21.60;75.50;;;;;;5050655;28;20025;-72
2021/07/31 11:08:01;;;;;;;3.78;1.58;;;21.70;75.50;;;;;;5050768;28;20537;-73
2021/07/31 11:10:44;;;;;;;2.05;1.30;;;21.70;75.10;;;;;;5050618;28;20044;-71
2021/07/31 11:13:19;;;;;;;5.70;1.50;;;21.70;75.20;;;;;;5049284;28;20025;-72
2021/07/31 11:15:59;;;;;;;2.85;1.40;;;21.70;75.20;;;;;;5049603;28;20120;-72
2021/07/31 11:18:34;;;;;;;5.05;2.20;;;21.50;75.50;;;;;;5049693;28;20031;-71
2021/07/31 11:21:24;;;;;;;2.35;1.33;;;21.60;76.40;;;;;;5050986;28;20018;-71
2021/07/31 11:23:55;;;;;;;3.38;1.17;;;21.60;75.90;;;;;;5050574;28;20044;-73
2021/07/31 11:26:39;;;;;;;3.45;1.05;;;21.60;75.60;;;;;;5049254;28;20507;-72
2021/07/31 11:29:10;;;;;;;5.18;1.48;;;21.50;75.90;;;;;;5050586;28;20065;-73
2021/07/31 11:31:38;;;;;;;6.70;1.48;;;21.60;75.60;;;;;;5050553;28;20112;-71
2021/07/31 11:34:06;;;;;;;7.00;0.95;;;21.60;75.50;;;;;;5050448;28;20481;-72
2021/07/31 11:36:35;;;;;;;;;;;21.60;75.50;;;;;;5049509;28;20025;-73
2021/07/31 11:39:01;;;;;;;3.90;0.82;;;21.60;75.60;;;;;;5053510;28;19927;-71
2021/07/31 11:41:28;;;;;;;1.38;1.00;;;21.40;76.00;;;;;;5054341;28;20028;-72
2021/07/31 11:43:56;;;;;;;5.72;1.00;;;21.30;76.20;;;;;;5053975;28;20025;-71
2021/07/31 11:46:27;;;;;;;1.85;0.85;;;21.30;76.00;;;;;;5054251;28;20466;-70
2021/07/31 11:48:53;;;;;;;3.80;1.15;;;21.30;76.50;;;;;;5054192;28;20106;-72
2021/07/31 11:51:19;;;;;;;1.98;1.00;;;21.20;76.40;;;;;;5053454;28;20021;-71
2021/07/31 11:53:45;;;;;;;6.35;1.20;;;21.40;76.70;;;;;;5055129;28;20021;-71
2021/07/31 11:56:18;;;;;;;4.30;1.25;;;21.30;76.90;;;;;;5053134;28;20071;-72
2021/07/31 11:58:45;;;;;;;13.43;1.95;;;21.40;77.00;;;;;;5054309;28;20386;-71
2021/07/31 12:01:11;;;;;;;2.63;1.30;;;21.20;77.80;;;;;;5053966;28;20101;-73
2021/07/31 12:03:41;;;;;;;4.53;1.30;;;21.30;77.90;;;;;;5053941;28;20420;-72
2021/07/31 12:06:23;;;;;;;1.42;1.23;;;21.20;78.40;;;;;;5054100;28;20029;-72
2021/07/31 12:08:49;;;;;;;3.58;1.50;;;21.10;79.20;;;;;;5053922;28;20037;-72
2021/07/31 12:11:14;;;;;;;4.38;1.58;;;21.10;79.40;;;;;;5053953;28;20409;-72
2021/07/31 12:13:40;;;;;;;5.25;1.67;;;21.10;79.50;;;;;;5053720;28;20033;-71
2021/07/31 12:16:05;;;;;;;4.03;1.30;;;21.10;79.90;;;;;;5053725;28;20036;-72
2021/07/31 12:18:49;;;;;;;1.88;1.17;;;21.20;80.00;;;;;;5053573;28;20040;-73
2021/07/31 12:21:28;;;;;;;7.07;1.60;;;21.20;80.10;;;;;;5053571;28;20029;-71
2021/07/31 12:23:54;;;;;;;4.90;1.42;;;21.20;79.70;;;;;;5054164;28;20537;-72
2021/07/31 12:26:31;;;;;;;3.25;1.60;;;21.20;79.50;;;;;;5053712;28;20474;-72
2021/07/31 12:28:57;;;;;;;3.67;1.27;;;21.20;79.10;;;;;;5052907;28;20550;-72
2021/07/31 12:31:30;;;;;;;4.20;1.10;;;21.40;79.30;;;;;;5053718;28;20025;-71
2021/07/31 12:33:57;;;;;;;5.20;1.35;;;21.30;78.60;;;;;;5053517;28;20114;-72
2021/07/31 12:36:23;;;;;;;3.17;1.10;;;21.30;78.20;;;;;;5053448;28;20439;-73
2021/07/31 12:38:51;;;;;;;6.82;1.10;;;21.20;78.20;;;;;;5052931;28;20347;-72
2021/07/31 12:41:23;;;;;;;2.08;1.25;;;21.20;78.10;;;;;;5053286;28;20059;-72
2021/07/31 12:43:49;;;;;;;3.22;1.25;;;21.30;78.20;;;;;;5053397;28;20124;-70
2021/07/31 12:46:14;;;;;;;5.25;1.30;;;21.30;77.90;;;;;;5053208;28;20563;-71